Time;durP1;ratioP1;P1;durP2;ratioP2;P2;SDS_P1;SDS_P2;PMS_P1;PMS_P2;Temp;Humidity;BMP_temperature;BMP_pressure;BME280_temperature;BME280_humidity;BME280_pressure;Samples;Min_cycle;Max_cycle;Signal;HPM_P1;HPM_P2
2022/10/07 00:01:54;;;;;;;7.97;3.90;;;14.10;1.00;;;;;;5088037;28;20492;-54
2022/10/07 00:04:20;;;;;;;12.77;4.15;;;14.10;1.00;;;;;;5089205;28;20870;-54
2022/10/07 00:06:46;;;;;;;9.73;4.40;;;14.10;1.00;;;;;;5089619;28;20803;-54
2022/10/07 00:09:12;;;;;;;9.00;4.00;;;14.10;1.00;;;;;;5088990;28;20451;-54
2022/10/07 00:11:37;;;;;;;8.52;4.20;;;14.10;1.00;;;;;;5089720;28;20839;-54
2022/10/07 00:14:07;;;;;;;9.98;4.18;;;14.00;1.00;;;;;;5091332;28;20400;-54
2022/10/07 00:16:36;;;;;;;9.40;3.78;;;14.00;1.00;;;;;;5093444;28;20394;-54
2022/10/07 00:19:06;;;;;;;9.55;3.80;;;14.00;1.00;;;;;;5093287;28;20385;-54
2022/10/07 00:21:34;;;;;;;9.77;4.47;;;13.90;1.00;;;;;;5093831;28;20374;-54
2022/10/07 00:24:00;;;;;;;11.40;4.50;;;14.00;1.00;;;;;;5092806;28;20374;-54
2022/10/07 00:26:28;;;;;;;10.10;4.50;;;14.00;1.00;;;;;;5092209;28;20472;-54
2022/10/07 00:28:55;;;;;;;12.05;4.07;;;14.00;1.00;;;;;;5093245;28;20909;-54
2022/10/07 00:31:27;;;;;;;12.98;5.20;;;14.00;1.00;;;;;;5091777;28;20398;-54
2022/10/07 00:33:53;;;;;;;14.37;5.10;;;14.60;1.00;;;;;;5092981;28;20398;-54
2022/10/07 00:36:22;;;;;;;9.85;4.88;;;14.00;1.00;;;;;;5092284;28;20459;-54
2022/10/07 00:39:14;;;;;;;14.35;4.90;;;14.10;1.00;;;;;;5092373;28;20461;-56
2022/10/07 00:41:43;;;;;;;9.98;4.10;;;14.30;1.00;;;;;;5090030;28;20394;-56
2022/10/07 00:44:44;;;;;;;11.07;4.80;;;14.30;1.00;;;;;;5092507;28;20381;-56
2022/10/07 00:47:12;;;;;;;10.80;4.20;;;14.30;1.00;;;;;;5091907;28;20382;-56
2022/10/07 00:50:03;;;;;;;13.27;4.88;;;14.30;1.00;;;;;;5092265;28;20434;-55
2022/10/07 00:52:35;;;;;;;11.27;4.15;;;14.30;1.00;;;;;;5083596;28;20390;-55
2022/10/07 00:55:05;;;;;;;14.60;4.97;;;14.30;1.00;;;;;;5090464;28;20457;-54
2022/10/07 00:57:32;;;;;;;11.90;4.90;;;14.10;1.00;;;;;;5090782;28;20863;-55
2022/10/07 00:59:59;;;;;;;13.10;5.00;;;14.10;1.00;;;;;;5092061;28;20476;-55
2022/10/07 01:02:26;;;;;;;13.52;4.80;;;14.10;99.90;;;;;;5090997;28;20390;-54
2022/10/07 01:04:53;;;;;;;11.00;4.80;;;14.00;99.90;;;;;;5091941;28;20421;-55
2022/10/07 01:07:20;;;;;;;11.18;4.30;;;13.90;99.90;;;;;;5091425;28;20382;-54
2022/10/07 01:09:49;;;;;;;13.35;5.25;;;13.80;99.90;;;;;;5091675;28;20890;-54
2022/10/07 01:12:15;;;;;;;11.65;5.00;;;13.80;99.90;;;;;;5090843;28;20381;-55
2022/10/07 01:15:07;;;;;;;12.43;5.43;;;13.80;99.90;;;;;;5091842;28;20401;-54
2022/10/07 01:17:40;;;;;;;12.15;4.97;;;13.80;99.90;;;;;;5091045;28;20425;-55
2022/10/07 01:20:23;;;;;;;10.18;4.60;;;13.70;99.90;;;;;;5091847;28;20778;-54
2022/10/07 01:23:19;;;;;;;13.82;4.80;;;13.70;99.90;;;;;;5092112;28;20382;-54
2022/10/07 01:26:06;;;;;;;12.35;4.97;;;13.70;99.90;;;;;;5090986;28;20381;-55
2022/10/07 01:28:41;;;;;;;11.10;4.80;;;13.80;99.90;;;;;;5091099;28;20382;-55
2022/10/07 01:31:11;;;;;;;12.73;5.70;;;13.90;99.90;;;;;;5091982;28;20409;-54
2022/10/07 01:33:40;;;;;;;12.20;4.85;;;13.90;99.90;;;;;;5092106;28;20376;-54
2022/10/07 01:36:22;;;;;;;13.88;5.20;;;13.80;99.90;;;;;;5091179;28;20467;-54
2022/10/07 01:38:57;;;;;;;12.10;4.90;;;13.70;99.90;;;;;;5091728;28;20374;-54
2022/10/07 01:41:23;;;;;;;13.25;5.30;;;13.60;1.00;;;;;;5090754;28;20533;-55
2022/10/07 01:43:52;;;;;;;12.23;5.05;;;13.50;1.00;;;;;;5091480;28;20445;-54
2022/10/07 01:46:25;;;;;;;12.70;5.20;;;13.50;1.00;;;;;;5090696;28;20382;-54
2022/10/07 01:48:52;;;;;;;14.40;5.00;;;13.40;1.00;;;;;;5091642;28;20417;-54
2022/10/07 01:51:22;;;;;;;14.77;4.82;;;13.30;1.00;;;;;;5090843;28;20819;-54
2022/10/07 01:54:09;;;;;;;13.32;4.85;;;13.30;1.00;;;;;;5091017;28;20868;-55
2022/10/07 01:57:10;;;;;;;12.77;5.53;;;13.20;1.00;;;;;;5090767;28;20457;-54
2022/10/07 02:00:00;;;;;;;12.20;5.53;;;13.10;1.00;;;;;;5073396;28;20443;-55
2022/10/07 02:02:52;;;;;;;14.32;5.80;;;13.10;1.00;;;;;;5090600;28;20400;-55
2022/10/07 02:05:30;;;;;;;14.70;5.38;;;13.00;1.00;;;;;;5090082;28;20748;-54
2022/10/07 02:08:45;;;;;;;13.02;5.50;;;13.00;1.00;;;;;;5091019;28;20413;-55
2022/10/07 02:11:36;;;;;;;14.80;5.20;;;13.00;1.00;;;;;;5085844;28;20438;-56
2022/10/07 02:14:17;;;;;;;9.95;4.95;;;13.20;1.00;;;;;;5091270;28;20832;-54
2022/10/07 02:16:47;;;;;;;12.18;5.88;;;13.20;1.00;;;;;;5091186;28;20401;-54
2022/10/07 02:19:21;;;;;;;11.50;4.88;;;13.10;1.00;;;;;;5090221;28;20704;-56
2022/10/07 02:21:51;;;;;;;11.63;5.30;;;13.10;1.00;;;;;;5091235;28;20415;-55
2022/10/07 02:24:20;;;;;;;10.15;5.13;;;13.00;1.00;;;;;;5089895;28;20872;-54
2022/10/07 02:26:48;;;;;;;12.57;6.10;;;13.00;1.00;;;;;;5090512;28;20856;-54
2022/10/07 02:29:19;;;;;;;12.93;5.00;;;13.10;1.00;;;;;;5089859;28;20786;-54
2022/10/07 02:31:47;;;;;;;12.32;5.00;;;13.10;1.00;;;;;;5090425;28;20409;-54
2022/10/07 02:34:18;;;;;;;11.52;5.00;;;13.10;1.00;;;;;;5090023;28;20443;-54
2022/10/07 02:36:51;;;;;;;14.93;5.80;;;13.10;1.00;;;;;;5090472;28;20401;-54
2022/10/07 02:39:17;;;;;;;11.43;5.23;;;13.10;1.00;;;;;;5072283;28;20451;-54
2022/10/07 02:42:03;;;;;;;10.98;5.00;;;13.10;1.00;;;;;;5090751;28;20397;-55
2022/10/07 02:44:50;;;;;;;11.73;4.97;;;13.10;1.00;;;;;;5090163;28;20418;-55
2022/10/07 02:47:27;;;;;;;13.80;5.80;;;13.20;1.00;;;;;;5089987;28;20429;-54
2022/10/07 02:50:00;;;;;;;9.63;4.97;;;13.30;1.00;;;;;;5090348;28;20434;-54
2022/10/07 02:52:30;;;;;;;12.73;5.70;;;13.20;1.00;;;;;;5089703;28;20393;-54
2022/10/07 02:55:00;;;;;;;12.65;5.25;;;13.20;1.00;;;;;;5090268;28;20862;-54
2022/10/07 02:57:29;;;;;;;14.90;5.87;;;13.30;1.00;;;;;;5090335;28;20398;-54
2022/10/07 02:59:56;;;;;;;13.88;6.15;;;13.30;1.00;;;;;;5090442;28;20381;-54
2022/10/07 03:02:34;;;;;;;14.68;6.60;;;13.30;1.00;;;;;;5089527;28;20413;-55
2022/10/07 03:05:00;;;;;;;11.23;5.30;;;13.40;1.00;;;;;;5072044;28;20404;-54
2022/10/07 03:07:27;;;;;;;10.95;5.95;;;13.40;1.00;;;;;;5089966;28;20386;-54
2022/10/07 03:09:53;;;;;;;15.50;6.43;;;13.30;1.00;;;;;;5090342;28;20399;-54
2022/10/07 03:12:18;;;;;;;13.18;5.65;;;13.30;1.00;;;;;;5089853;28;20866;-55
2022/10/07 03:14:47;;;;;;;11.97;6.03;;;13.40;1.00;;;;;;5072176;28;20385;-54
2022/10/07 03:17:13;;;;;;;13.48;5.25;;;13.40;1.00;;;;;;5089538;28;20398;-55
2022/10/07 03:19:39;;;;;;;13.20;5.07;;;13.40;1.00;;;;;;5090464;28;20378;-54
2022/10/07 03:22:04;;;;;;;10.90;5.50;;;13.60;1.00;;;;;;5089487;28;20382;-54
2022/10/07 03:24:30;;;;;;;12.90;5.53;;;13.40;1.00;;;;;;5089064;28;20601;-54
2022/10/07 03:26:56;;;;;;;12.10;5.50;;;13.40;1.00;;;;;;5089555;28;20386;-54
2022/10/07 03:29:21;;;;;;;11.52;5.18;;;13.40;1.00;;;;;;5089366;28;20374;-54
2022/10/07 03:31:47;;;;;;;12.65;5.57;;;13.50;1.00;;;;;;5080362;28;20418;-54
2022/10/07 03:34:12;;;;;;;12.43;6.00;;;13.50;1.00;;;;;;5089013;28;20382;-56
2022/10/07 03:36:38;;;;;;;11.35;5.70;;;13.60;13.10;;;;;;5089540;28;20897;-54
2022/10/07 03:39:04;;;;;;;11.75;5.40;;;13.60;5.00;;;;;;5088854;28;21297;-56
2022/10/07 03:41:29;;;;;;;11.80;5.03;;;13.70;1.00;;;;;;5080248;28;20402;-54
2022/10/07 03:43:58;;;;;;;11.83;5.20;;;13.70;1.00;;;;;;5089419;28;20867;-54
2022/10/07 03:46:23;;;;;;;13.90;5.20;;;13.70;1.00;;;;;;5088037;28;20387;-54
2022/10/07 03:48:50;;;;;;;9.95;5.80;;;13.70;1.00;;;;;;5091927;28;20426;-54
2022/10/07 03:51:15;;;;;;;10.63;5.10;;;13.60;1.00;;;;;;5092314;28;20933;-54
2022/10/07 03:53:41;;;;;;;9.50;5.10;;;13.60;1.00;;;;;;5093573;28;20512;-54
2022/10/07 03:56:07;;;;;;;13.82;4.88;;;13.60;1.00;;;;;;5092604;28;20413;-54
2022/10/07 03:58:33;;;;;;;11.27;5.30;;;13.70;1.00;;;;;;5092225;28;20439;-55
2022/10/07 04:01:07;;;;;;;9.77;5.05;;;13.70;1.00;;;;;;5092982;28;20426;-54
2022/10/07 04:03:33;;;;;;;13.85;5.38;;;13.80;1.00;;;;;;5091555;28;20385;-54
2022/10/07 04:05:59;;;;;;;13.65;5.38;;;13.70;1.00;;;;;;5093262;28;20393;-54
2022/10/07 04:08:29;;;;;;;9.82;5.10;;;13.70;1.00;;;;;;5091254;28;20591;-54
2022/10/07 04:10:56;;;;;;;10.70;5.43;;;13.70;1.00;;;;;;5093282;28;20378;-54
2022/10/07 04:13:22;;;;;;;10.70;4.55;;;13.70;1.00;;;;;;5086035;28;20459;-54
2022/10/07 04:15:48;;;;;;;12.27;5.40;;;13.80;1.00;;;;;;5078247;28;20955;-54
2022/10/07 04:18:14;;;;;;;10.48;5.18;;;13.80;1.00;;;;;;5079408;28;20435;-55
2022/10/07 04:20:40;;;;;;;11.60;5.00;;;13.60;1.00;;;;;;5093236;28;20696;-54
2022/10/07 04:23:06;;;;;;;13.15;5.57;;;13.60;1.00;;;;;;5092978;28;20465;-54
2022/10/07 04:25:35;;;;;;;10.52;5.30;;;13.60;1.00;;;;;;5092236;28;20635;-54
2022/10/07 04:28:04;;;;;;;12.30;5.47;;;13.60;1.00;;;;;;5093247;28;20378;-54
2022/10/07 04:30:33;;;;;;;12.80;6.10;;;13.40;1.00;;;;;;5091595;28;20463;-55
2022/10/07 04:33:01;;;;;;;11.20;5.22;;;13.70;1.00;;;;;;5092881;28;20390;-54
2022/10/07 04:35:28;;;;;;;11.73;4.97;;;13.70;1.00;;;;;;5091763;28;20385;-54
2022/10/07 04:37:53;;;;;;;9.27;4.35;;;13.80;1.00;;;;;;5092509;28;20456;-54
2022/10/07 04:40:20;;;;;;;14.70;5.00;;;13.70;1.00;;;;;;5086900;28;20770;-54
2022/10/07 04:45:32;;;;;;;10.10;5.28;;;13.90;1.00;;;;;;5090133;28;21114;-54
2022/10/07 04:47:59;;;;;;;19.38;7.53;;;14.00;1.00;;;;;;5091965;28;20382;-55
2022/10/07 04:50:25;;;;;;;13.40;5.43;;;14.00;1.00;;;;;;5091139;28;20382;-54
2022/10/07 04:52:50;;;;;;;14.15;5.65;;;13.80;1.00;;;;;;5091758;28;20381;-54
2022/10/07 04:55:16;;;;;;;13.57;5.43;;;13.90;1.00;;;;;;5091161;28;20839;-55
2022/10/07 04:57:41;;;;;;;14.67;6.57;;;13.90;1.00;;;;;;5092606;28;20416;-54
2022/10/07 05:00:08;;;;;;;9.45;4.68;;;14.00;1.00;;;;;;5091589;28;20684;-54
2022/10/07 05:02:34;;;;;;;10.20;4.43;;;14.10;1.00;;;;;;5090450;28;20490;-54
2022/10/07 05:05:00;;;;;;;11.77;5.10;;;15.20;1.00;;;;;;5092167;28;20378;-54
2022/10/07 05:07:25;;;;;;;9.20;4.30;;;13.90;1.00;;;;;;5089626;28;20393;-54
2022/10/07 05:09:51;;;;;;;10.93;4.60;;;13.80;1.00;;;;;;5092031;28;21054;-54
2022/10/07 05:12:17;;;;;;;11.60;5.03;;;13.70;1.00;;;;;;5086390;28;20855;-54
2022/10/07 05:14:44;;;;;;;12.55;5.00;;;13.80;1.00;;;;;;5089761;28;20431;-54
2022/10/07 05:17:10;;;;;;;10.90;5.30;;;13.70;1.00;;;;;;5083984;28;20404;-55
2022/10/07 05:19:35;;;;;;;11.93;5.22;;;13.00;1.00;;;;;;5081665;28;20787;-54
2022/10/07 05:22:04;;;;;;;12.50;5.05;;;13.60;1.00;;;;;;5071804;28;20497;-54
2022/10/07 05:24:30;;;;;;;10.80;5.30;;;13.60;1.00;;;;;;5070439;28;20398;-55
2022/10/07 05:26:55;;;;;;;10.20;5.70;;;13.60;1.00;;;;;;5071665;28;20383;-54
2022/10/07 05:29:21;;;;;;;14.33;5.40;;;13.50;1.00;;;;;;5089751;28;20394;-54
2022/10/07 05:31:50;;;;;;;13.45;5.13;;;13.60;1.00;;;;;;5091158;28;20406;-55
2022/10/07 05:34:16;;;;;;;10.40;4.88;;;13.60;1.00;;;;;;5090870;28;20420;-54
2022/10/07 05:36:42;;;;;;;10.65;4.65;;;13.50;2.80;;;;;;5091335;28;20487;-54
2022/10/07 05:39:09;;;;;;;11.52;4.68;;;13.60;10.20;;;;;;5091508;28;20442;-55
2022/10/07 05:41:34;;;;;;;10.65;4.60;;;13.70;3.80;;;;;;5090952;28;20390;-54
2022/10/07 05:44:00;;;;;;;14.53;5.37;;;13.80;1.00;;;;;;5091494;28;20859;-54
2022/10/07 05:46:26;;;;;;;14.20;5.70;;;13.80;1.00;;;;;;5090911;28;20725;-55
2022/10/07 05:48:52;;;;;;;9.15;5.10;;;13.90;1.00;;;;;;5091723;28;20386;-54
2022/10/07 05:51:20;;;;;;;13.43;5.70;;;13.80;1.00;;;;;;5090496;28;20461;-54
2022/10/07 05:53:46;;;;;;;14.20;6.10;;;13.80;1.00;;;;;;5091553;28;20413;-54
2022/10/07 05:56:15;;;;;;;16.58;5.80;;;13.80;1.00;;;;;;5090687;28;20433;-58
2022/10/07 05:58:41;;;;;;;14.38;5.10;;;13.90;1.00;;;;;;5090793;28;20387;-54
2022/10/07 06:01:17;;;;;;;11.40;4.70;;;14.00;1.00;;;;;;5090943;28;20398;-54
2022/10/07 06:03:47;;;;;;;17.52;5.80;;;14.00;1.00;;;;;;5088330;28;20812;-54
2022/10/07 06:06:12;;;;;;;12.45;4.85;;;14.00;1.00;;;;;;5085588;28;20401;-55
2022/10/07 06:08:38;;;;;;;11.50;5.05;;;14.00;1.00;;;;;;5090840;28;20472;-54
2022/10/07 06:13:51;;;;;;;13.50;4.70;;;14.10;1.00;;;;;;5090837;28;20412;-54
2022/10/07 06:16:17;;;;;;;14.85;5.35;;;14.30;1.00;;;;;;5089824;28;20410;-54
2022/10/07 06:18:43;;;;;;;13.25;5.07;;;14.30;1.00;;;;;;5090690;28;20386;-56
2022/10/07 06:21:09;;;;;;;12.07;5.00;;;14.50;1.00;;;;;;5090583;28;20401;-57
2022/10/07 06:23:34;;;;;;;13.47;4.70;;;14.70;1.00;;;;;;5085891;28;20406;-56
2022/10/07 06:26:09;;;;;;;10.25;4.95;;;14.80;1.00;;;;;;5090122;28;20386;-59
2022/10/07 06:28:39;;;;;;;11.73;5.53;;;14.80;1.00;;;;;;5086944;28;20685;-59
2022/10/07 06:31:07;;;;;;;12.88;5.00;;;14.90;1.00;;;;;;5085845;28;20425;-60
2022/10/07 06:33:33;;;;;;;11.07;4.88;;;15.00;1.00;;;;;;5082479;28;21044;-60
2022/10/07 06:36:25;;;;;;;10.70;4.90;;;15.00;1.00;;;;;;5086429;28;20413;-60
2022/10/07 06:38:53;;;;;;;13.82;5.43;;;15.20;99.90;;;;;;5077385;28;20909;-60
2022/10/07 06:41:20;;;;;;;14.70;5.88;;;15.40;99.90;;;;;;5089495;28;20457;-60
2022/10/07 06:43:46;;;;;;;13.25;5.50;;;15.70;99.90;;;;;;5078963;28;20382;-60
2022/10/07 06:46:18;;;;;;;14.23;4.95;;;15.90;70.20;;;;;;5069593;28;20383;-60
2022/10/07 06:48:45;;;;;;;10.82;4.95;;;16.30;99.90;;;;;;5079682;28;20421;-60
2022/10/07 06:51:16;;;;;;;13.45;6.63;;;16.30;1.00;;;;;;5089384;28;20374;-60
2022/10/07 06:53:43;;;;;;;15.55;6.07;;;16.50;99.90;;;;;;5089657;28;20381;-60
2022/10/07 06:56:12;;;;;;;19.37;6.30;;;16.70;99.90;;;;;;5090022;28;20402;-60
2022/10/07 06:58:37;;;;;;;14.77;6.07;;;16.90;1.00;;;;;;5082281;28;20384;-60
2022/10/07 07:01:04;;;;;;;12.00;4.93;;;17.00;99.90;;;;;;5071191;28;20863;-58
2022/10/07 07:03:29;;;;;;;13.77;5.40;;;17.20;1.00;;;;;;5084231;28;20905;-58
2022/10/07 07:05:55;;;;;;;14.30;4.97;;;17.50;99.90;;;;;;5087016;28;20390;-58
2022/10/07 07:08:26;;;;;;;12.10;5.38;;;17.40;25.10;;;;;;5088253;28;20409;-57
2022/10/07 07:10:52;;;;;;;12.60;5.80;;;17.20;74.20;;;;;;5086549;28;20381;-57
2022/10/07 07:13:18;;;;;;;10.23;4.80;;;17.10;99.90;;;;;;5086158;28;20770;-58
2022/10/07 07:15:54;;;;;;;10.23;5.10;;;17.20;99.90;;;;;;5085571;28;20393;-57
2022/10/07 07:18:19;;;;;;;15.35;5.10;;;17.30;99.90;;;;;;5083854;28;20455;-58
2022/10/07 07:20:45;;;;;;;12.82;5.18;;;17.60;99.90;;;;;;5087217;28;20391;-58
2022/10/07 07:23:11;;;;;;;12.90;5.87;;;18.20;1.00;;;;;;5070235;28;20394;-58
2022/10/07 07:25:38;;;;;;;10.90;5.40;;;19.20;99.90;;;;;;5070481;28;20676;-59
2022/10/07 07:28:06;;;;;;;11.50;5.70;;;20.00;99.90;;;;;;5088882;28;20424;-59
2022/10/07 07:30:32;;;;;;;15.88;6.18;;;20.40;1.00;;;;;;5088502;28;20394;-59
2022/10/07 07:32:58;;;;;;;13.85;5.63;;;20.70;1.00;;;;;;5089199;28;20785;-59
2022/10/07 07:35:24;;;;;;;17.40;6.00;;;;;;;;;;5083587;28;20394;-60
2022/10/07 07:37:50;;;;;;;13.55;5.88;;;;;;;;;;5086558;28;20779;-60
2022/10/07 07:40:17;;;;;;;11.63;5.55;;;;;;;;;;5088052;28;20377;-60
2022/10/07 07:42:45;;;;;;;12.00;5.25;;;;;;;;;;5082190;28;20390;-60
2022/10/07 07:45:11;;;;;;;12.10;5.17;;;;;;;;;;5086915;28;20386;-60
2022/10/07 07:47:37;;;;;;;10.88;4.65;;;;;;;;;;5088673;28;20429;-60
2022/10/07 07:50:04;;;;;;;12.70;5.90;;;;;;;;;;5071321;28;20724;-60
2022/10/07 07:52:30;;;;;;;17.10;6.37;;;;;;;;;;5088409;28;20366;-60
2022/10/07 07:54:57;;;;;;;14.00;9.20;;;26.90;99.90;;;;;;5089368;28;20367;-61
2022/10/07 07:57:24;;;;;;;13.40;8.50;;;27.30;99.90;;;;;;5088068;28;20764;-59
2022/10/07 07:59:49;;;;;;;14.27;11.20;;;28.30;99.90;;;;;;5089417;28;20417;-59
2022/10/07 08:02:15;;;;;;;13.97;8.00;;;27.80;99.90;;;;;;5088393;28;20421;-61
2022/10/07 08:04:41;;;;;;;14.43;9.90;;;27.50;99.90;;;;;;5087674;28;20410;-60
2022/10/07 08:07:10;;;;;;;16.40;14.70;;;27.70;99.90;;;;;;5088213;28;20381;-60
2022/10/07 08:09:35;;;;;;;12.10;10.70;;;27.90;99.90;;;;;;5087379;28;20385;-60
2022/10/07 08:12:01;;;;;;;16.70;10.10;;;27.50;99.90;;;;;;5083665;28;20394;-60
2022/10/07 08:14:27;;;;;;;12.85;8.98;;;26.90;99.90;;;;;;5088293;28;20386;-60
2022/10/07 08:16:55;;;;;;;13.30;11.90;;;27.30;99.90;;;;;;5084093;28;20919;-60
2022/10/07 08:19:20;;;;;;;14.02;12.07;;;27.30;99.90;;;;;;5084059;28;20417;-60
2022/10/07 08:21:46;;;;;;;14.95;12.88;;;27.40;99.90;;;;;;5084392;28;20862;-60
2022/10/07 08:24:13;;;;;;;16.02;13.57;;;27.60;99.90;;;;;;5088825;28;20570;-60
2022/10/07 08:26:39;;;;;;;15.85;14.15;;;27.90;99.90;;;;;;5087964;28;20385;-60
2022/10/07 08:29:05;;;;;;;17.47;15.87;;;28.50;99.90;;;;;;5088407;28;20374;-60
2022/10/07 08:31:31;;;;;;;14.33;8.57;;;28.70;99.90;;;;;;5085145;28;20408;-60
2022/10/07 08:33:59;;;;;;;13.00;5.68;;;29.80;99.90;;;;;;5089598;28;20881;-60
2022/10/07 08:36:27;;;;;;;14.90;6.00;;;29.00;99.90;;;;;;5089855;28;20589;-60
2022/10/07 08:38:53;;;;;;;13.25;5.55;;;28.20;99.90;;;;;;5090210;28;20396;-60
2022/10/07 08:41:39;;;;;;;11.50;5.50;;;28.40;99.90;;;;;;5089721;28;20390;-60
2022/10/07 08:44:17;;;;;;;16.52;5.70;;;29.10;99.90;;;;;;5075595;28;20405;-60
2022/10/07 08:47:05;;;;;;;13.98;6.10;;;28.80;99.90;;;;;;5088968;28;20480;-60
2022/10/07 08:49:53;;;;;;;14.95;11.35;;;28.70;99.90;;;;;;5090951;28;20431;-61
2022/10/07 08:52:38;;;;;;;17.35;15.65;;;29.00;99.90;;;;;;5083374;28;20496;-61
2022/10/07 08:55:20;;;;;;;13.88;6.10;;;29.40;99.90;;;;;;5088047;28;20735;-61
2022/10/07 08:58:18;;;;;;;14.60;6.38;;;29.40;99.90;;;;;;5090175;28;20402;-61
2022/10/07 09:01:05;;;;;;;10.70;5.50;;;29.00;99.90;;;;;;5089706;28;20924;-61
2022/10/07 09:03:43;;;;;;;14.68;5.70;;;29.40;99.90;;;;;;5085275;28;20408;-61
2022/10/07 09:06:18;;;;;;;11.98;7.80;;;29.90;99.90;;;;;;5089004;28;20390;-61
2022/10/07 09:08:56;;;;;;;13.40;6.82;;;30.50;99.90;;;;;;5091439;28;20436;-62
2022/10/07 09:11:24;;;;;;;11.68;7.28;;;30.40;99.90;;;;;;5090393;28;20389;-62
2022/10/07 09:13:56;;;;;;;12.00;8.20;;;30.50;99.90;;;;;;5091571;28;20515;-62
2022/10/07 09:16:29;;;;;;;13.50;6.30;;;30.60;99.90;;;;;;5090270;28;20402;-62
2022/10/07 09:18:58;;;;;;;12.68;8.55;;;30.00;99.90;;;;;;5091216;28;20428;-61
2022/10/07 09:21:31;;;;;;;15.40;13.37;;;29.90;99.90;;;;;;5090639;28;20384;-61
2022/10/07 09:24:20;;;;;;;14.55;11.70;;;30.10;99.90;;;;;;5088603;28;20394;-61
2022/10/07 09:26:46;;;;;;;14.43;12.80;;;31.10;99.90;;;;;;5086915;28;20542;-61
2022/10/07 09:29:12;;;;;;;14.43;11.80;;;30.00;99.90;;;;;;5072679;28;20406;-62
2022/10/07 09:31:38;;;;;;;12.07;5.63;;;29.50;99.90;;;;;;5087787;28;20538;-61
2022/10/07 09:34:05;;;;;;;13.73;6.45;;;28.10;99.90;;;;;;5107360;28;20394;-62
2022/10/07 09:36:30;;;;;;;14.82;10.75;;;27.80;99.90;;;;;;5090874;28;20475;-62
2022/10/07 09:39:15;;;;;;;12.43;9.47;;;27.60;99.90;;;;;;5091480;28;20408;-62
2022/10/07 09:41:41;;;;;;;13.48;10.30;;;27.60;99.90;;;;;;5083258;28;20819;-62
2022/10/07 09:44:26;;;;;;;16.45;10.20;;;28.00;99.90;;;;;;5070579;28;20416;-61
2022/10/07 09:46:56;;;;;;;15.80;9.93;;;28.80;99.90;;;;;;5089784;28;20416;-61
2022/10/07 09:49:27;;;;;;;15.07;6.25;;;29.10;99.90;;;;;;5089725;28;20387;-61
2022/10/07 09:52:05;;;;;;;11.80;5.40;;;29.70;99.90;;;;;;5085135;28;20384;-61
2022/10/07 09:54:35;;;;;;;11.00;4.90;;;30.30;99.90;;;;;;5087745;28;20928;-62
2022/10/07 09:57:03;;;;;;;7.32;3.10;;;31.10;99.90;;;;;;5090805;28;20398;-62
2022/10/07 09:59:32;;;;;;;9.00;4.00;;;30.80;99.90;;;;;;5084317;28;20393;-62
2022/10/07 10:02:15;;;;;;;8.75;3.55;;;30.90;99.90;;;;;;5089152;28;20398;-62
2022/10/07 10:04:56;;;;;;;10.57;3.40;;;30.40;99.90;;;;;;5089511;28;20523;-61
2022/10/07 10:07:24;;;;;;;10.77;3.72;;;30.20;99.90;;;;;;5089657;28;20895;-62
2022/10/07 10:09:53;;;;;;;8.52;3.13;;;30.30;99.90;;;;;;5088673;28;20451;-57
2022/10/07 10:12:20;;;;;;;9.68;3.50;;;30.20;99.90;;;;;;5069720;28;20471;-58
2022/10/07 10:14:57;;;;;;;9.32;3.60;;;30.20;99.90;;;;;;5066969;28;20412;-57
2022/10/07 10:17:33;;;;;;;8.70;3.33;;;30.40;99.90;;;;;;5089755;28;20409;-58
2022/10/07 10:20:17;;;;;;;7.55;3.45;;;30.80;99.90;;;;;;5090597;28;20393;-58
2022/10/07 10:22:43;;;;;;;9.23;3.80;;;31.20;99.90;;;;;;5072543;28;20397;-58
2022/10/07 10:28:05;;;;;;;8.40;3.70;;;29.90;99.90;;;;;;5090748;28;20936;-58
2022/10/07 10:30:36;;;;;;;10.53;4.13;;;30.30;99.90;;;;;;5089101;28;20489;-57
2022/10/07 10:33:23;;;;;;;7.82;3.25;;;31.20;99.90;;;;;;5090948;28;20410;-58
2022/10/07 10:36:04;;;;;;;11.07;4.10;;;31.20;99.90;;;;;;5090221;28;20365;-57
2022/10/07 10:38:36;;;;;;;8.80;3.22;;;30.50;99.90;;;;;;5089740;28;20874;-58
2022/10/07 10:41:19;;;;;;;11.50;7.60;;;29.80;99.90;;;;;;5090352;28;20378;-58
2022/10/07 10:44:03;;;;;;;10.43;7.50;;;27.60;99.90;;;;;;5090720;28;20386;-57
2022/10/07 10:46:51;;;;;;;11.70;7.60;;;27.30;99.90;;;;;;5089130;28;20473;-57
2022/10/07 10:49:30;;;;;;;11.85;7.65;;;28.30;99.90;;;;;;5089538;28;20374;-58
2022/10/07 10:52:15;;;;;;;11.05;7.60;;;28.40;99.90;;;;;;5090209;28;20410;-57
2022/10/07 10:55:18;;;;;;;9.85;7.30;;;27.10;99.90;;;;;;5089839;28;20378;-57
2022/10/07 10:58:17;;;;;;;9.88;7.03;;;27.80;99.90;;;;;;5089676;28;20394;-57
2022/10/07 11:01:15;;;;;;;8.73;6.70;;;27.80;99.90;;;;;;5089293;28;20444;-57
2022/10/07 11:04:03;;;;;;;10.30;6.07;;;27.90;99.90;;;;;;5069598;28;20384;-57
2022/10/07 11:06:34;;;;;;;9.07;6.18;;;27.70;99.90;;;;;;5074868;28;20404;-57
2022/10/07 11:09:01;;;;;;;9.57;6.35;;;27.90;99.90;;;;;;5081523;28;20382;-57
2022/10/07 11:11:27;;;;;;;11.90;7.57;;;28.10;99.90;;;;;;5076267;28;20481;-57
2022/10/07 11:13:56;;;;;;;10.25;7.55;;;27.30;99.90;;;;;;5085697;28;20478;-57
2022/10/07 11:16:37;;;;;;;10.88;6.82;;;26.40;99.90;;;;;;5093503;28;20865;-57
2022/10/07 11:19:10;;;;;;;9.50;6.43;;;26.00;99.90;;;;;;5091255;28;20813;-57
2022/10/07 11:21:49;;;;;;;10.63;6.60;;;25.90;99.90;;;;;;5089772;28;20511;-57
2022/10/07 11:24:21;;;;;;;11.55;7.15;;;25.50;99.90;;;;;;5094878;28;20399;-57
2022/10/07 11:26:56;;;;;;;10.88;6.55;;;24.90;99.90;;;;;;5089850;28;20386;-57
2022/10/07 11:29:45;;;;;;;9.60;5.50;;;24.80;99.90;;;;;;5089079;28;20380;-57
2022/10/07 11:32:21;;;;;;;10.77;6.40;;;25.00;99.90;;;;;;5089289;28;20409;-57
2022/10/07 11:35:02;;;;;;;10.38;6.30;;;25.00;99.90;;;;;;5089586;28;20857;-57
2022/10/07 11:38:03;;;;;;;11.07;6.22;;;24.80;99.90;;;;;;5088887;28;20390;-57
2022/10/07 11:40:32;;;;;;;11.90;6.30;;;24.40;99.90;;;;;;5074991;28;20481;-57
2022/10/07 11:43:15;;;;;;;11.73;5.50;;;24.10;99.90;;;;;;5089413;28;20370;-57
2022/10/07 11:45:48;;;;;;;8.88;5.90;;;23.90;99.90;;;;;;5088837;28;20402;-56
2022/10/07 11:48:21;;;;;;;8.65;5.90;;;23.50;99.90;;;;;;5086436;28;20398;-57
2022/10/07 11:50:54;;;;;;;10.45;6.05;;;23.70;99.90;;;;;;5089576;28;20378;-57
2022/10/07 11:53:27;;;;;;;9.85;5.60;;;23.70;99.90;;;;;;5088806;28;20378;-57
2022/10/07 11:56:03;;;;;;;11.15;5.03;;;23.70;99.90;;;;;;5088130;28;20437;-56
2022/10/07 11:58:37;;;;;;;11.30;5.57;;;23.70;99.90;;;;;;5088658;28;20881;-57
2022/10/07 12:01:25;;;;;;;10.88;5.50;;;23.90;99.90;;;;;;5080111;28;20404;-56
2022/10/07 12:03:52;;;;;;;12.05;6.25;;;24.10;99.90;;;;;;5088683;28;20905;-56
2022/10/07 12:06:18;;;;;;;11.82;5.70;;;24.50;99.90;;;;;;5095025;28;20421;-58
2022/10/07 12:08:45;;;;;;;9.70;6.10;;;24.90;99.90;;;;;;5089755;28;20500;-56
2022/10/07 12:11:11;;;;;;;9.73;5.78;;;25.00;99.90;;;;;;5090976;28;20398;-56
2022/10/07 12:13:45;;;;;;;10.27;5.93;;;24.90;99.90;;;;;;5087232;28;20653;-56
2022/10/07 12:16:23;;;;;;;10.60;5.95;;;25.00;99.90;;;;;;5092543;28;20416;-56
2022/10/07 12:19:06;;;;;;;9.23;5.90;;;24.90;99.90;;;;;;5087183;28;20406;-57
2022/10/07 12:22:03;;;;;;;9.80;5.38;;;24.80;99.90;;;;;;5090697;28;20390;-57
2022/10/07 12:24:30;;;;;;;11.52;6.50;;;24.70;99.90;;;;;;5091522;28;20443;-56
2022/10/07 12:27:16;;;;;;;9.80;5.80;;;24.20;99.90;;;;;;5085009;28;20409;-56
2022/10/07 12:30:02;;;;;;;10.27;5.70;;;24.00;99.90;;;;;;5092897;28;20382;-56
2022/10/07 12:32:59;;;;;;;12.07;6.10;;;24.00;99.90;;;;;;5097471;28;20499;-56
2022/10/07 12:35:33;;;;;;;10.53;6.07;;;23.80;99.90;;;;;;5096863;28;20437;-56
2022/10/07 12:38:02;;;;;;;11.07;5.90;;;23.60;99.90;;;;;;5093631;28;20406;-57
2022/10/07 12:40:29;;;;;;;12.80;5.80;;;23.40;99.90;;;;;;5093599;28;20504;-57
2022/10/07 12:43:08;;;;;;;11.10;5.82;;;23.70;99.90;;;;;;5084627;28;20408;-56
2022/10/07 12:45:37;;;;;;;15.60;5.80;;;23.70;99.90;;;;;;5090271;28;20390;-56
2022/10/07 12:48:04;;;;;;;10.95;5.82;;;23.60;99.90;;;;;;5091646;28;20414;-56
2022/10/07 12:50:32;;;;;;;12.48;6.00;;;23.30;99.90;;;;;;5090765;28;20779;-56
2022/10/07 12:53:01;;;;;;;11.10;5.87;;;23.20;99.90;;;;;;5093236;28;20505;-56
2022/10/07 12:55:32;;;;;;;10.63;5.75;;;22.90;99.90;;;;;;5091669;28;20449;-57
2022/10/07 13:01:28;;;;;;;11.02;5.80;;;22.90;99.90;;;;;;5067484;28;20386;-57
2022/10/07 13:04:24;;;;;;;13.02;6.05;;;23.00;99.90;;;;;;5092737;28;20386;-57
2022/10/07 13:07:09;;;;;;;12.00;5.20;;;23.10;99.90;;;;;;5087452;28;20477;-57
2022/10/07 13:10:15;;;;;;;11.23;6.38;;;23.10;99.90;;;;;;5089491;28;20411;-57
2022/10/07 13:12:57;;;;;;;13.90;6.05;;;23.10;99.90;;;;;;5011533;28;20461;-56
2022/10/07 13:15:48;;;;;;;11.60;5.80;;;22.90;99.90;;;;;;5096788;28;20800;-56
2022/10/07 13:18:27;;;;;;;10.10;5.30;;;23.20;99.90;;;;;;5078063;28;20822;-57
2022/10/07 13:21:06;;;;;;;10.32;5.30;;;23.20;99.90;;;;;;5088577;28;20394;-56
2022/10/07 13:23:32;;;;;;;10.65;5.10;;;23.00;99.90;;;;;;5082863;28;20449;-56